Pagrindinis puslapis
METAR-TAF:

METAR-TAF

Oro uostai :

Panama Pacifico, Panama

platuma: 08-55N, ilguma: 079-36W, Aukštis: 16 m

Dabartinis oras

Ataskaita buvo paskelbta 31 minutes, ne 03:00 UTC
Vėjas 10 kt iš Šiaurės/Šiaurės Rytų
Temperatūra 26°C
Drėgmė 84%
Slėgis 1009 hPa
Matomumas 10 km arba daugiau
Mažai debesys ne aukštis 1800 ft

METAR: MPPA 180300Z 03010KT 9999 FEW018 26/23 Q1009

Laikas: 22:31 (03:31 UTC)

Prognozė

Ataskaita buvo paskelbta 4 valandos ir 31 minutes, ne 23:00 UTC
Prognozė galioja nuo 18 metu 00 UTC su 19 metu 06 UTC
Vėjas 10 kt iš Šiaurės
Matomumas 10 km arba daugiau
Mažai debesys ne aukštis 1800 ft
Tapsmas
nuo 18 metu 18 UTC su 18 metu 22 UTC
Vėjas 18 kt iš Šiaurės/Šiaurės Rytų

TAF: MPPA 172300Z 1800/1906 01010KT 9999 FEW018 BECMG 1818/1822 02018KT

Orai ataskaitas ir orų prognozės (METAR, TAF).

turimą stotys yra geltonos ir raudonos taškus žemėlapyje.

Perkelti pele per norėdami pamatyti stoties vardą.

Tada spustelėkite, norėdami matyti oro stebėjimo ir prognozės.

Norėdami pakeisti žemėlapį: spustelėkite ant žalios mygtukų su juodo kryžiaus žemyn,; žalią mygtuką su brūkšneliu, jei norite nutolinti; arba žalių rodyklių gretimoms žemėlapius.


METAR-TAF: